Vermilion, Illinois
Current Conditions -  °F | °C
As of 4:55 AM on Friday 31 Oct 2014 (Local Time) from KPRG Reporting Station
Overcast Overcast  
Wind Chill: 43°   Ceiling: 5500
Heat Index: 43°   Visibility: 7mi
Dew Point: 42°   Wind: 3mph
Humidity: 95%   Direction: 300°WNW
Pressure: 30.04"   Gusts: NA
Location:  39.58°N, 87.59°W
Report Text: KPRG 310955Z AUTO 30003KT 7SM OVC055 06/06 A3004 RMK AO2 T00630055
Loading
Personal Weather Stations






























Interactive Weather Map
Tropical Storm Tracking
New forecast layout! Learn more

10-Day Weather Forecast

Advertisements
Track Severe Weather on mobile